Maple Ridge, Canada
Current Conditions -  °F | °C
As of 11:00 PM on Wednesday 17 Dec 2014 (Local Time) from CYXX Reporting Station
Light Rain Light Rain  
Wind Chill: 41°   Ceiling: 3000
Heat Index: 41°   Visibility: 8mi
Dew Point: 41°   Wind: 3mph
Humidity: 100%   Direction: 30°NNE
Pressure: 29.92"   Gusts: NA
Location:  49.22°N, 122.6°W
Report Text: CYXX 180700Z 03003KT 8SM -RA OVC030 05/05 A2992 RMK SC8 SLP133
Loading
Personal Weather Stations






























Interactive Weather Map New forecast layout! Learn more

10-Day Weather Forecast

Advertisements
Track Severe Weather on mobile